Time;durP1;ratioP1;P1;durP2;ratioP2;P2;SDS_P1;SDS_P2;PMS_P1;PMS_P2;Temp;Humidity;BMP_temperature;BMP_pressure;BME280_temperature;BME280_humidity;BME280_pressure;Samples;Min_cycle;Max_cycle;Signal;HPM_P1;HPM_P2
2023/09/26 00:02:08;;;;;;;2.88;1.52;;;;;;;;;;5093064;28;20044;-71
2023/09/26 00:04:34;;;;;;;5.40;2.00;;;;;;;;;;5093061;28;20088;-71
2023/09/26 00:07:02;;;;;;;10.10;3.20;;;;;;;;;;5093232;28;20049;-71
2023/09/26 00:09:29;;;;;;;4.93;1.70;;;;;;;;;;5091727;28;20027;-72
2023/09/26 00:11:56;;;;;;;4.57;1.80;;;;;;;;;;5090455;28;20403;-72
2023/09/26 00:14:22;;;;;;;3.67;1.88;;;;;;;;;;5088388;28;20043;-72
2023/09/26 00:16:47;;;;;;;6.80;2.13;;;;;;;;;;5086136;28;20473;-70
2023/09/26 00:19:13;;;;;;;5.70;2.15;;;;;;;;;;5092843;28;20027;-70
2023/09/26 00:21:39;;;;;;;4.57;1.70;;;;;;;;;;5092854;28;20032;-70
2023/09/26 00:24:05;;;;;;;6.18;1.90;;;;;;;;;;5092946;28;20526;-70
2023/09/26 00:26:31;;;;;;;7.97;2.33;;;;;;;;;;5093097;28;20054;-70
2023/09/26 00:28:57;;;;;;;8.25;1.90;;;;;;;;;;5093055;28;20110;-71
2023/09/26 00:31:23;;;;;;;5.95;2.00;;;;;;;;;;5092844;28;20035;-71
2023/09/26 00:33:49;;;;;;;6.18;2.10;;;;;;;;;;5092828;28;20378;-71
2023/09/26 00:36:15;;;;;;;3.97;1.98;;;;;;;;;;5091544;28;20031;-71
2023/09/26 00:38:41;;;;;;;7.40;2.20;;;;;;;;;;5092651;28;20078;-71
2023/09/26 00:41:07;;;;;;;3.67;1.73;;;;;;;;;;5091402;28;20085;-71
2023/09/26 00:43:35;;;;;;;6.78;2.10;;;;;;;;;;5091033;28;20469;-71
2023/09/26 00:46:06;;;;;;;5.82;2.08;;;;;;;;;;5091076;28;20074;-71
2023/09/26 00:48:32;;;;;;;5.25;1.80;;;;;;;;;;5092388;28;20402;-71
2023/09/26 00:50:59;;;;;;;6.07;1.90;;;;;;;;;;5090622;28;20458;-71
2023/09/26 00:53:27;;;;;;;6.65;1.85;;;;;;;;;;5091257;28;20028;-71
2023/09/26 00:55:55;;;;;;;5.00;2.10;;;;;;;;;;5090760;28;20020;-71
2023/09/26 00:58:25;;;;;;;3.95;1.90;;;;;;;;;;5090876;28;20036;-70
2023/09/26 01:00:53;;;;;;;5.72;2.20;;;;;;;;;;5090190;28;20473;-70
2023/09/26 01:03:20;;;;;;;7.07;2.00;;;;;;;;;;5092458;28;20024;-70
2023/09/26 01:05:46;;;;;;;6.55;3.03;;;;;;;;;;5090307;28;20030;-70
2023/09/26 01:08:12;;;;;;;6.35;2.72;;;;;;;;;;5091173;28;20024;-72
2023/09/26 01:10:39;;;;;;;4.85;1.85;;;;;;;;;;5091539;28;20036;-72
2023/09/26 01:13:04;;;;;;;5.22;2.45;;;;;;;;;;5091525;28;20564;-72
2023/09/26 01:15:39;;;;;;;4.90;2.10;;;;;;;;;;5090895;28;20036;-71
2023/09/26 01:18:13;;;;;;;5.78;2.03;;;;;;;;;;5090858;28;20107;-71
2023/09/26 01:20:44;;;;;;;3.50;1.98;;;;;;;;;;5090481;28;20044;-70
2023/09/26 01:23:14;;;;;;;6.15;2.15;;;;;;;;;;5092262;28;20043;-71
2023/09/26 01:25:41;;;;;;;4.28;2.20;;;;;;;;;;5090796;28;20023;-71
2023/09/26 01:28:08;;;;;;;6.72;2.08;;;;;;;;;;5090600;28;20039;-71
2023/09/26 01:30:39;;;;;;;4.82;1.90;;;;;;;;;;5092008;28;20448;-71
2023/09/26 01:33:16;;;;;;;4.88;2.00;;;;;;;;;;5091810;28;20474;-70
2023/09/26 01:35:43;;;;;;;5.70;1.73;;;;;;;;;;5088944;28;20060;-70
2023/09/26 01:38:09;;;;;;;5.15;2.00;;;;;;;;;;5090525;28;20028;-70
2023/09/26 01:40:35;;;;;;;4.10;1.80;;;;;;;;;;5091744;28;20040;-71
2023/09/26 01:43:01;;;;;;;3.53;1.77;;;;;;;;;;5090531;28;20374;-71
2023/09/26 01:45:26;;;;;;;6.30;2.40;;;;;;;;;;5090352;28;20044;-72
2023/09/26 01:47:52;;;;;;;7.18;1.73;;;;;;;;;;5090634;28;20118;-71
2023/09/26 01:50:20;;;;;;;3.65;1.70;;;;;;;;;;5092001;28;20115;-72
2023/09/26 01:52:46;;;;;;;3.50;1.48;;;;;;;;;;5090399;28;20093;-71
2023/09/26 01:55:14;;;;;;;3.75;1.70;;;;;;;;;;5094383;28;20036;-71
2023/09/26 01:57:40;;;;;;;4.28;1.60;;;;;;;;;;5094622;28;20491;-72
2023/09/26 02:00:12;;;;;;;5.55;2.28;;;;;;;;;;5094462;28;20393;-71
2023/09/26 02:02:44;;;;;;;5.57;1.55;;;;;;;;;;5095964;28;20040;-71
2023/09/26 02:05:13;;;;;;;5.50;1.67;;;;;;;;;;5096001;28;20492;-71
2023/09/26 02:07:41;;;;;;;5.28;1.58;;;;;;;;;;5095531;28;20031;-72
2023/09/26 02:10:08;;;;;;;3.58;1.80;;;;;;;;;;5095542;28;20066;-71
2023/09/26 02:12:37;;;;;;;6.57;1.90;;;;;;;;;;5095680;28;20145;-70
2023/09/26 02:15:05;;;;;;;4.20;1.83;;;;;;;;;;5094184;28;20122;-71
2023/09/26 02:17:35;;;;;;;3.35;1.48;;;;;;;;;;5094205;28;20393;-70
2023/09/26 02:20:15;;;;;;;5.72;1.77;;;;;;;;;;5093943;28;20097;-71
2023/09/26 02:22:51;;;;;;;3.38;1.60;;;;;;;;;;5093906;28;20028;-71
2023/09/26 02:25:19;;;;;;;3.90;1.60;;;;;;;;;;5095417;28;20035;-70
2023/09/26 02:27:45;;;;;;;3.83;1.52;;;;;;;;;;5095744;28;20028;-70
2023/09/26 02:30:20;;;;;;;5.60;1.85;;;;;;;;;;5095189;28;20032;-70
2023/09/26 02:32:45;;;;;;;6.68;2.13;;;;;;;;;;5094148;28;20028;-72
2023/09/26 02:35:13;;;;;;;4.25;1.83;;;;;;;;;;5093669;28;20030;-71
2023/09/26 02:37:40;;;;;;;21.50;2.53;;;;;;;;;;5092608;28;20071;-72
2023/09/26 02:40:10;;;;;;;3.60;2.05;;;;;;;;;;5089547;28;20031;-72
2023/09/26 02:42:39;;;;;;;8.13;2.05;;;;;;;;;;5093888;28;20032;-71
2023/09/26 02:45:05;;;;;;;7.63;2.20;;;;;;;;;;5092742;28;20024;-70
2023/09/26 02:47:31;;;;;;;6.50;2.00;;;;;;;;;;5092865;28;20040;-72
2023/09/26 02:49:57;;;;;;;6.15;1.67;;;;;;;;;;5093919;28;20020;-72
2023/09/26 02:52:24;;;;;;;7.90;2.00;;;;;;;;;;5092577;28;20032;-72
2023/09/26 02:54:49;;;;;;;5.88;1.80;;;;;;;;;;5091233;28;20581;-72
2023/09/26 02:57:15;;;;;;;4.13;1.70;;;;;;;;;;5093160;28;20107;-72
2023/09/26 02:59:41;;;;;;;4.97;2.10;;;;;;;;;;5093184;28;20374;-72
2023/09/26 03:02:07;;;;;;;5.05;2.17;;;;;;;;;;5092878;28;20039;-71
2023/09/26 03:04:33;;;;;;;6.07;2.05;;;;;;;;;;5093631;28;20019;-71
2023/09/26 03:06:59;;;;;;;5.35;2.15;;;;;;;;;;5094465;28;20044;-71
2023/09/26 03:09:24;;;;;;;5.78;2.22;;;;;;;;;;5086330;28;20051;-71
2023/09/26 03:11:50;;;;;;;4.80;1.88;;;;;;;;;;5088731;28;20032;-71
2023/09/26 03:14:18;;;;;;;3.53;1.60;;;;;;;;;;5090717;28;20035;-72
2023/09/26 03:16:44;;;;;;;3.75;1.90;;;;;;;;;;5091157;28;20036;-73
2023/09/26 03:19:10;;;;;;;8.35;2.00;;;;;;;;;;5091787;28;20031;-72
2023/09/26 03:21:37;;;;;;;5.65;2.60;;;;;;;;;;5091592;28;20036;-72
2023/09/26 03:24:02;;;;;;;3.03;1.70;;;;;;;;;;5093141;28;20047;-72
2023/09/26 03:26:29;;;;;;;12.95;2.55;;;;;;;;;;5091584;28;20128;-72
2023/09/26 03:28:54;;;;;;;4.65;2.08;;;;;;;;;;5091682;28;20069;-70
2023/09/26 03:31:21;;;;;;;4.88;2.05;;;;;;;;;;5092982;28;20484;-73
2023/09/26 03:33:48;;;;;;;6.35;2.17;;;;;;;;;;5091739;28;20108;-71
2023/09/26 03:36:14;;;;;;;9.45;3.13;;;;;;;;;;5091581;28;20031;-70
2023/09/26 03:38:40;;;;;;;5.60;2.67;;;;;;;;;;5088900;28;20032;-70
2023/09/26 03:41:06;;;;;;;6.38;2.22;;;;;;;;;;5092385;28;20028;-71
2023/09/26 03:43:32;;;;;;;8.48;2.40;;;;;;;;;;5092988;28;20047;-71
2023/09/26 03:46:02;;;;;;;4.70;2.20;;;;;;;;;;5093066;28;20032;-70
2023/09/26 03:48:29;;;;;;;20.25;2.90;;;;;;;;;;5087246;28;20081;-71
2023/09/26 03:50:56;;;;;;;9.82;2.42;;;;;;;;;;5091771;28;20389;-72
2023/09/26 03:53:21;;;;;;;7.10;2.25;;;;;;;;;;5092998;28;20406;-72
2023/09/26 03:55:56;;;;;;;4.85;2.13;;;;;;;;;;5093278;28;20068;-75
2023/09/26 03:58:22;;;;;;;6.03;2.70;;;;;;;;;;5092744;28;20056;-71
2023/09/26 04:00:48;;;;;;;7.13;3.22;;;;;;;;;;5092751;28;20122;-70
2023/09/26 04:03:14;;;;;;;12.98;3.53;;;;;;;;;;5092797;28;20039;-70
2023/09/26 04:05:46;;;;;;;11.55;2.75;;;;;;;;;;5092397;28;20020;-70
2023/09/26 04:08:14;;;;;;;7.75;2.60;;;;;;;;;;5090665;28;20051;-71
2023/09/26 04:10:40;;;;;;;5.53;2.60;;;;;;;;;;5091552;28;20105;-72
2023/09/26 04:13:06;;;;;;;15.55;4.10;;;;;;;;;;5091909;28;20115;-71
2023/09/26 04:15:32;;;;;;;7.28;2.40;;;;;;;;;;5091701;28;20530;-71
2023/09/26 04:17:57;;;;;;;7.90;2.67;;;;;;;;;;5090534;28;20032;-71
2023/09/26 04:20:23;;;;;;;29.63;14.55;;;;;;;;;;5092123;28;20056;-72
2023/09/26 04:22:49;;;;;;;10.85;2.70;;;;;;;;;;5091835;28;20028;-70
2023/09/26 04:25:15;;;;;;;9.55;2.80;;;;;;;;;;5092151;28;20477;-70
2023/09/26 04:27:41;;;;;;;13.02;3.45;;;;;;;;;;5092169;28;20043;-71
2023/09/26 04:30:08;;;;;;;5.82;3.13;;;;;;;;;;5092006;28;20058;-71
2023/09/26 04:32:35;;;;;;;6.70;2.80;;;;;;;;;;5091812;28;20031;-73
2023/09/26 04:35:01;;;;;;;7.50;2.53;;;;;;;;;;5091819;28;20069;-72
2023/09/26 04:37:26;;;;;;;7.57;2.97;;;;;;;;;;5091873;28;20035;-71
2023/09/26 04:39:52;;;;;;;10.52;3.42;;;;;;;;;;5091966;28;20028;-71
2023/09/26 04:42:18;;;;;;;19.38;3.58;;;;;;;;;;5090898;28;20040;-71
2023/09/26 04:44:43;;;;;;;16.15;3.90;;;;;;;;;;5092614;28;20397;-71
2023/09/26 04:47:09;;;;;;;7.15;3.20;;;;;;;;;;5092055;28;20390;-72
2023/09/26 04:49:35;;;;;;;12.57;3.35;;;;;;;;;;5092079;28;20046;-73
2023/09/26 04:52:02;;;;;;;7.45;3.05;;;;;;;;;;5091739;28;20508;-72
2023/09/26 04:54:28;;;;;;;9.15;3.45;;;;;;;;;;5091771;28;20039;-71
2023/09/26 04:56:53;;;;;;;8.88;3.08;;;;;;;;;;5091676;28;20032;-72
2023/09/26 04:59:19;;;;;;;15.30;3.75;;;;;;;;;;5090572;28;20023;-72
2023/09/26 05:01:49;;;;;;;12.80;3.25;;;;;;;;;;5091592;28;20035;-73
2023/09/26 05:04:15;;;;;;;7.50;4.05;;;;;;;;;;5091803;28;20416;-72
2023/09/26 05:06:41;;;;;;;5.68;3.40;;;;;;;;;;5091375;28;20024;-72
2023/09/26 05:09:07;;;;;;;13.55;4.03;;;;;;;;;;5091459;28;20101;-71
2023/09/26 05:11:32;;;;;;;19.05;4.50;;;;;;;;;;5091549;28;20529;-71
2023/09/26 05:13:59;;;;;;;8.63;3.33;;;;;;;;;;5091540;28;20059;-72
2023/09/26 05:16:25;;;;;;;7.53;3.30;;;;;;;;;;5091464;28;20027;-71
2023/09/26 05:18:52;;;;;;;11.35;4.35;;;;;;;;;;5091205;28;20216;-72
2023/09/26 05:21:18;;;;;;;14.25;3.80;;;;;;;;;;5091028;28;20066;-72
2023/09/26 05:23:44;;;;;;;16.48;4.05;;;;;;;;;;5091833;28;20063;-72
2023/09/26 05:26:11;;;;;;;19.55;4.53;;;;;;;;;;5091449;28;20024;-73
2023/09/26 05:28:38;;;;;;;18.52;4.80;;;;;;;;;;5091353;28;20438;-71
2023/09/26 05:31:04;;;;;;;18.42;4.68;;;;;;;;;;5090724;28;20506;-71
2023/09/26 05:33:31;;;;;;;15.85;4.30;;;;;;;;;;5091043;28;20028;-73
2023/09/26 05:35:57;;;;;;;14.50;4.25;;;;;;;;;;5090019;28;20036;-72
2023/09/26 05:38:25;;;;;;;11.52;3.75;;;;;;;;;;5091411;28;20039;-72
2023/09/26 05:40:51;;;;;;;7.85;4.10;;;;;;;;;;5091092;28;20481;-71
2023/09/26 05:43:17;;;;;;;13.80;4.10;;;;;;;;;;5091195;28;20039;-72
2023/09/26 05:45:43;;;;;;;18.35;4.90;;;;;;;;;;5091114;28;20020;-72
2023/09/26 05:48:08;;;;;;;10.18;4.03;;;;;;;;;;5089773;28;20152;-74
2023/09/26 05:50:34;;;;;;;10.95;3.67;;;;;;;;;;5089533;28;20024;-73
2023/09/26 05:53:00;;;;;;;13.23;4.07;;;;;;;;;;5090931;28;20097;-73
2023/09/26 05:55:26;;;;;;;21.77;6.40;;;;;;;;;;5090689;28;20142;-75
2023/09/26 05:57:53;;;;;;;13.85;5.25;;;;;;;;;;5106378;28;20375;-73
2023/09/26 06:00:19;;;;;;;19.13;6.30;;;;;;;;;;5091021;28;20122;-71
2023/09/26 06:02:46;;;;;;;16.67;4.47;;;;;;;;;;5091094;28;20031;-70
2023/09/26 06:05:12;;;;;;;13.02;5.75;;;;;;;;;;5090935;28;20096;-72
2023/09/26 06:07:38;;;;;;;18.70;7.72;;;;;;;;;;5090966;28;20032;-71
2023/09/26 06:10:04;;;;;;;26.33;7.45;;;;;;;;;;5090792;28;20382;-70
2023/09/26 06:12:30;;;;;;;19.55;8.00;;;;;;;;;;5091060;28;20059;-70
2023/09/26 06:14:56;;;;;;;22.27;7.05;;;;;;;;;;5090868;28;20394;-71
2023/09/26 06:17:22;;;;;;;16.92;6.82;;;;;;;;;;5090673;28;20032;-71
2023/09/26 06:19:48;;;;;;;13.63;6.18;;;;;;;;;;5089441;28;20035;-72
2023/09/26 06:22:15;;;;;;;16.13;7.88;;;;;;;;;;5090045;28;20088;-69
2023/09/26 06:24:40;;;;;;;21.63;8.15;;;;;;;;;;5090272;28;20470;-71
2023/09/26 06:27:07;;;;;;;22.60;9.45;;;;;;;;;;5086907;28;20055;-74
2023/09/26 06:29:32;;;;;;;20.73;9.75;;;;;;;;;;5090039;28;20024;-70
2023/09/26 06:31:58;;;;;;;17.65;9.65;;;;;;;;;;5090227;28;20024;-73
2023/09/26 06:34:24;;;;;;;32.00;12.80;;;;;;;;;;5090791;28;20020;-72
2023/09/26 06:36:51;;;;;;;19.20;12.15;;;;;;;;;;5091174;28;20031;-72
2023/09/26 06:39:18;;;;;;;20.05;11.98;;;;;;;;;;5089648;28;20030;-71
2023/09/26 06:41:44;;;;;;;20.75;9.88;;;;;;;;;;5093568;28;20027;-73
2023/09/26 06:44:09;;;;;;;15.82;8.30;;;;;;;;;;5094243;28;20020;-72
2023/09/26 06:46:36;;;;;;;11.70;7.25;;;;;;;;;;5093743;28;20060;-72
2023/09/26 06:49:03;;;;;;;19.85;8.45;;;;;;;;;;5093745;28;20020;-71
2023/09/26 06:51:30;;;;;;;16.70;7.88;;;;;;;;;;5093582;28;20365;-71
2023/09/26 06:53:56;;;;;;;24.95;8.27;;;;;;;;;;5094168;28;20038;-70
2023/09/26 06:56:25;;;;;;;19.58;7.57;;;;;;;;;;5093193;28;20032;-73
2023/09/26 06:58:51;;;;;;;11.50;4.97;;;;;;;;;;5094230;28;20092;-72
2023/09/26 07:01:25;;;;;;;20.35;6.25;;;;;;;;;;5093117;28;20163;-71
2023/09/26 07:03:52;;;;;;;18.38;5.95;;;;;;;;;;5094179;28;20126;-72
2023/09/26 07:06:18;;;;;;;15.82;5.35;;;;;;;;;;5094270;28;20271;-72
2023/09/26 07:08:44;;;;;;;16.75;5.50;;;;;;;;;;5093817;28;20438;-73
2023/09/26 07:11:10;;;;;;;12.77;4.55;;;;;;;;;;5093649;28;20543;-72
2023/09/26 07:13:36;;;;;;;12.93;4.57;;;;;;;;;;5089905;28;20100;-72
2023/09/26 07:16:04;;;;;;;8.07;3.85;;;;;;;;;;5093624;28;20051;-72
2023/09/26 07:18:34;;;;;;;15.93;3.90;;;;;;;;;;5093599;28;20107;-72
2023/09/26 07:21:04;;;;;;;10.80;3.70;;;;;;;;;;5093998;28;20085;-72
2023/09/26 07:23:35;;;;;;;11.07;3.40;;;;;;;;;;5092795;28;20031;-71
2023/09/26 07:26:12;;;;;;;7.53;3.38;;;;;;;;;;5091943;28;20040;-73
2023/09/26 07:28:41;;;;;;;8.90;3.38;;;;;;;;;;5093441;28;20032;-73
2023/09/26 07:31:10;;;;;;;12.43;4.00;;;;;;;;;;5093470;28;20064;-71
2023/09/26 07:33:36;;;;;;;19.60;3.95;;;;;;;;;;5093603;28;20036;-71
2023/09/26 07:36:02;;;;;;;11.00;3.63;;;;;;;;;;5093378;28;20114;-71
2023/09/26 07:38:28;;;;;;;9.10;3.90;;;;;;;;;;5093537;28;20052;-72
2023/09/26 07:40:54;;;;;;;10.90;3.50;;;;;;;;;;5092720;28;20084;-71
2023/09/26 07:43:20;;;;;;;10.40;4.07;;;;;;;;;;5092716;28;20393;-71
2023/09/26 07:45:46;;;;;;;13.60;3.78;;;;;;;;;;5093415;28;20093;-72
2023/09/26 07:48:11;;;;;;;8.20;3.83;;;;;;;;;;5092554;28;20444;-71
2023/09/26 07:50:37;;;;;;;16.55;4.10;;;;;;;;;;5092753;28;20554;-72
2023/09/26 07:53:04;;;;;;;16.15;3.95;;;;;;;;;;5091794;28;20020;-72
2023/09/26 07:55:29;;;;;;;19.08;4.10;;;;;;;;;;5074814;28;20035;-73
2023/09/26 07:57:55;;;;;;;13.48;4.82;;;;;;;;;;5093349;28;20028;-72
2023/09/26 08:00:21;;;;;;;11.40;4.25;;;;;;;;;;5093282;28;20028;-72
2023/09/26 08:02:46;;;;;;;17.48;4.05;;;;;;;;;;5093059;28;20028;-70
2023/09/26 08:05:12;;;;;;;13.38;3.80;;;;;;;;;;5092750;28;20123;-71
2023/09/26 08:07:42;;;;;;;11.73;3.75;;;;;;;;;;5092893;28;20394;-71
2023/09/26 08:10:08;;;;;;;14.73;4.25;;;;;;;;;;5092440;28;20035;-71
2023/09/26 08:12:36;;;;;;;13.50;4.13;;;;;;;;;;5092637;28;20370;-75
2023/09/26 08:15:02;;;;;;;13.65;3.85;;;;;;;;;;5092941;28;20085;-72
2023/09/26 08:17:28;;;;;;;16.52;3.97;;;;;;;;;;5092321;28;20016;-72
2023/09/26 08:19:54;;;;;;;13.52;3.78;;;;;;;;;;5092553;28;20039;-73
2023/09/26 08:22:19;;;;;;;17.67;4.03;;;;;;;;;;5092109;28;20118;-71
2023/09/26 08:24:45;;;;;;;13.15;4.03;;;;;;;;;;5092357;28;20081;-73
2023/09/26 08:27:11;;;;;;;20.83;4.55;;;;;;;;;;5092696;28;20069;-72
2023/09/26 08:29:37;;;;;;;12.10;3.22;;;;;;;;;;5091988;28;20031;-71
2023/09/26 08:32:04;;;;;;;17.40;4.10;;;;;;;;;;5092265;28;20174;-72
2023/09/26 08:34:29;;;;;;;16.50;3.63;;;;;;;;;;5092112;28;20177;-71
2023/09/26 08:36:57;;;;;;;18.15;4.43;;;;;;;;;;5092035;28;20021;-73
2023/09/26 08:39:22;;;;;;;14.80;3.60;;;;;;;;;;5092095;28;20119;-72
2023/09/26 08:41:50;;;;;;;17.30;4.57;;;;;;;;;;5092283;28;20589;-70
2023/09/26 08:44:16;;;;;;;14.90;4.38;;;;;;;;;;5091615;28;20036;-72
2023/09/26 08:46:45;;;;;;;10.98;3.92;;;;;;;;;;5091641;28;20039;-72
2023/09/26 08:49:11;;;;;;;11.45;4.15;;;;;;;;;;5090536;28;20165;-71
2023/09/26 08:51:37;;;;;;;11.68;3.60;;;;;;;;;;5091599;28;20436;-72
2023/09/26 08:54:03;;;;;;;21.13;4.90;;;;;;;;;;5091575;28;20047;-72
2023/09/26 08:56:32;;;;;;;11.30;3.70;;;;;;;;;;5090322;28;20028;-70
2023/09/26 08:59:01;;;;;;;13.35;4.00;;;;;;;;;;5092012;28;20036;-70
2023/09/26 09:01:28;;;;;;;12.70;3.85;;;;;;;;;;5091718;28;20020;-70
2023/09/26 09:03:54;;;;;;;20.73;4.28;;;;;;;;;;5089697;28;20431;-73
2023/09/26 09:06:20;;;;;;;14.70;5.13;;;;;;;;;;5089281;28;20103;-71
2023/09/26 09:08:47;;;;;;;15.10;3.92;;;;;;;;;;5090156;28;20524;-71
2023/09/26 09:11:13;;;;;;;14.25;3.53;;;;;;;;;;5090215;28;20031;-72
2023/09/26 09:13:40;;;;;;;17.25;3.58;;;;;;;;;;5091327;28;20036;-72
2023/09/26 09:16:13;;;;;;;14.15;4.30;;;;;;;;;;5091020;28;20024;-71
2023/09/26 09:18:50;;;;;;;21.58;4.53;;;;;;;;;;5090795;28;20442;-73
2023/09/26 09:21:23;;;;;;;15.82;4.93;;;;;;;;;;5090152;28;20511;-70
2023/09/26 09:23:50;;;;;;;;;;;;;;;;;;5091514;28;20036;-71
2023/09/26 09:26:15;;;;;;;15.82;4.20;;;;;;;;;;5090349;28;19912;-71
2023/09/26 09:28:41;;;;;;;13.73;3.90;;;;;;;;;;5091011;28;20073;-71
2023/09/26 09:31:07;;;;;;;12.82;4.07;;;;;;;;;;5091202;28;20019;-72
2023/09/26 09:33:33;;;;;;;14.68;3.83;;;;;;;;;;5090117;28;20038;-71
2023/09/26 09:35:59;;;;;;;12.10;4.03;;;;;;;;;;5090586;28;20115;-72
2023/09/26 09:38:26;;;;;;;15.75;4.85;;;;;;;;;;5089900;28;20115;-71
2023/09/26 09:40:52;;;;;;;14.48;4.35;;;;;;;;;;5090099;28;20401;-72
2023/09/26 09:43:19;;;;;;;12.20;4.05;;;;;;;;;;5091144;28;20036;-71
2023/09/26 09:45:47;;;;;;;16.30;4.47;;;;;;;;;;5090387;28;20016;-70
2023/09/26 09:48:14;;;;;;;13.02;3.97;;;;;;;;;;5088833;28;20044;-71
2023/09/26 09:50:44;;;;;;;15.15;4.03;;;;;;;;;;5090658;28;20081;-72
2023/09/26 09:53:13;;;;;;;14.20;4.43;;;;;;;;;;5090838;28;20043;-71
2023/09/26 09:55:42;;;;;;;11.13;3.88;;;;;;;;;;5090464;28;20031;-70
2023/09/26 09:58:12;;;;;;;12.55;3.63;;;;;;;;;;5090912;28;20103;-72
2023/09/26 10:00:40;;;;;;;13.73;4.82;;;;;;;;;;5090270;28;20032;-71
2023/09/26 10:03:06;;;;;;;16.83;4.72;;;;;;;;;;5090213;28;20064;-72
2023/09/26 10:05:34;;;;;;;22.38;4.63;;;;;;;;;;5091053;28;20145;-70
2023/09/26 10:08:02;;;;;;;24.50;5.05;;;;;;;;;;5090966;28;20083;-72
2023/09/26 10:10:29;;;;;;;15.88;4.32;;;;;;;;;;5089808;28;20028;-71
2023/09/26 10:12:56;;;;;;;14.70;5.03;;;;;;;;;;5090386;28;20036;-72
2023/09/26 10:15:22;;;;;;;13.30;5.13;;;;;;;;;;5089468;28;20039;-70
2023/09/26 10:17:48;;;;;;;13.27;3.55;;;;;;;;;;5076637;28;20043;-71
2023/09/26 10:20:15;;;;;;;13.40;3.88;;;;;;;;;;5095125;28;20079;-71
2023/09/26 10:22:43;;;;;;;18.20;5.22;;;;;;;;;;5093845;28;20451;-71
2023/09/26 10:25:19;;;;;;;12.18;4.50;;;;;;;;;;5093858;28;20244;-71
2023/09/26 10:27:47;;;;;;;14.02;4.05;;;;;;;;;;5094625;28;20043;-73
2023/09/26 10:30:18;;;;;;;12.27;3.72;;;;;;;;;;5094727;28;20424;-70
2023/09/26 10:32:45;;;;;;;16.83;4.68;;;;;;;;;;5092491;28;20109;-71
2023/09/26 10:35:13;;;;;;;12.40;4.15;;;;;;;;;;5094861;28;20034;-70
2023/09/26 10:37:48;;;;;;;14.15;3.60;;;;;;;;;;5094515;28;20043;-73
2023/09/26 10:40:15;;;;;;;16.77;4.35;;;;;;;;;;5094316;28;20126;-71
2023/09/26 10:42:47;;;;;;;21.85;4.40;;;;;;;;;;5094553;28;20190;-71
2023/09/26 10:45:13;;;;;;;19.65;5.07;;;;;;;;;;5094633;28;20093;-71
2023/09/26 10:47:40;;;;;;;17.45;4.50;;;;;;;;;;5094339;28;20058;-72
2023/09/26 10:50:14;;;;;;;12.75;4.03;;;;;;;;;;5094485;28;20043;-72
2023/09/26 10:52:49;;;;;;;13.25;4.35;;;;;;;;;;5094076;28;20131;-71
2023/09/26 10:55:16;;;;;;;12.45;4.82;;;;;;;;;;5092904;28;20128;-71
2023/09/26 10:57:44;;;;;;;11.82;3.63;;;;;;;;;;5094347;28;20035;-70
2023/09/26 11:00:12;;;;;;;12.13;3.85;;;;;;;;;;5094192;28;20040;-72
2023/09/26 11:02:38;;;;;;;22.20;5.18;;;;;;;;;;5094275;28;20492;-74
2023/09/26 11:05:12;;;;;;;13.18;4.00;;;;;;;;;;5093301;28;20070;-70
2023/09/26 11:07:38;;;;;;;13.35;4.13;;;;;;;;;;5092588;28;20036;-71
2023/09/26 11:10:05;;;;;;;14.57;4.53;;;;;;;;;;5094094;28;20048;-70
2023/09/26 11:12:32;;;;;;;12.10;4.63;;;;;;;;;;5093664;28;20036;-72
2023/09/26 11:15:00;;;;;;;13.05;4.35;;;;;;;;;;5093454;28;20027;-71
2023/09/26 11:17:29;;;;;;;12.15;4.07;;;;;;;;;;5094001;28;20031;-72
2023/09/26 11:19:59;;;;;;;13.02;4.90;;;;;;;;;;5093604;28;20035;-71
2023/09/26 11:22:26;;;;;;;16.52;4.55;;;;;;;;;;5093709;28;20051;-70
2023/09/26 11:25:05;;;;;;;16.27;4.82;;;;;;;;;;5094047;28;20141;-71
2023/09/26 11:27:31;;;;;;;10.55;4.18;;;;;;;;;;5092264;28;20094;-70
2023/09/26 11:30:00;;;;;;;16.70;4.70;;;;;;;;;;5093485;28;20024;-71
2023/09/26 11:32:27;;;;;;;11.25;4.95;;;;;;;;;;5094099;28;20397;-69
2023/09/26 11:34:52;;;;;;;14.15;4.63;;;;;;;;;;5092614;28;20031;-70
2023/09/26 11:37:18;;;;;;;11.45;3.90;;;;;;;;;;5093782;28;20036;-70
2023/09/26 11:39:50;;;;;;;11.40;3.78;;;;;;;;;;5093543;28;20493;-72
2023/09/26 11:42:17;;;;;;;13.57;4.37;;;;;;;;;;5093434;28;20158;-71
2023/09/26 11:44:56;;;;;;;15.75;4.43;;;;;;;;;;5093238;28;20533;-73
2023/09/26 11:47:26;;;;;;;14.60;4.35;;;;;;;;;;5093313;28;20039;-71
2023/09/26 11:49:52;;;;;;;10.20;4.25;;;;;;;;;;5091964;28;20119;-70
2023/09/26 11:52:18;;;;;;;12.50;5.10;;;;;;;;;;5093214;28;20107;-73
2023/09/26 11:54:44;;;;;;;15.68;4.80;;;;;;;;;;5093403;28;20035;-72
2023/09/26 11:57:14;;;;;;;17.13;5.07;;;;;;;;;;5093237;28;20020;-71
2023/09/26 11:59:40;;;;;;;17.27;4.55;;;;;;;;;;5091761;28;20044;-73
2023/09/26 12:02:08;;;;;;;11.65;4.15;;;;;;;;;;5093409;28;20027;-73
2023/09/26 12:04:35;;;;;;;21.83;4.65;;;;;;;;;;5093323;28;20034;-74
2023/09/26 12:07:01;;;;;;;15.73;6.10;;;;;;;;;;5092736;28;20032;-73
2023/09/26 12:09:30;;;;;;;12.48;4.57;;;;;;;;;;5093219;28;20101;-72
2023/09/26 12:11:56;;;;;;;15.35;4.30;;;;;;;;;;5092934;28;20024;-72
2023/09/26 12:14:22;;;;;;;10.65;4.55;;;;;;;;;;5093354;28;20055;-73
2023/09/26 12:16:51;;;;;;;17.10;5.35;;;;;;;;;;5093214;28;20468;-72
2023/09/26 12:19:21;;;;;;;13.38;4.85;;;;;;;;;;5093220;28;20036;-72
2023/09/26 12:21:48;;;;;;;15.27;4.50;;;;;;;;;;5091701;28;20036;-74
2023/09/26 12:24:14;;;;;;;14.30;3.90;;;;;;;;;;5094278;28;20077;-71
2023/09/26 12:26:45;;;;;;;15.95;3.97;;;;;;;;;;5092641;28;20040;-72
2023/09/26 12:29:11;;;;;;;12.65;4.47;;;;;;;;;;5093061;28;20394;-72
2023/09/26 12:31:36;;;;;;;16.35;4.38;;;;;;;;;;5093268;28;20024;-71
2023/09/26 12:34:03;;;;;;;13.45;4.80;;;;;;;;;;5092679;28;20490;-73
2023/09/26 12:36:31;;;;;;;8.40;4.00;;;;;;;;;;5092728;28;20022;-72
2023/09/26 12:38:57;;;;;;;16.05;4.72;;;;;;;;;;5091927;28;20050;-72
2023/09/26 12:41:24;;;;;;;16.42;5.07;;;;;;;;;;5090276;28;20119;-70
2023/09/26 12:43:50;;;;;;;18.17;4.88;;;;;;;;;;5092509;28;20047;-72
2023/09/26 12:46:15;;;;;;;17.40;4.65;;;;;;;;;;5091429;28;20028;-72
2023/09/26 12:48:41;;;;;;;14.75;4.65;;;;;;;;;;5091657;28;20097;-71
2023/09/26 12:51:07;;;;;;;13.50;4.32;;;;;;;;;;5091700;28;20373;-72
2023/09/26 12:53:33;;;;;;;13.38;4.25;;;;;;;;;;5091975;28;20305;-72
2023/09/26 12:55:58;;;;;;;13.88;4.38;;;;;;;;;;5091135;28;20054;-73
2023/09/26 12:58:24;;;;;;;16.25;4.85;;;;;;;;;;5091657;28;20028;-72
2023/09/26 13:00:49;;;;;;;9.75;4.00;;;;;;;;;;5107559;28;20453;-73
2023/09/26 13:03:15;;;;;;;9.65;4.53;;;;;;;;;;5092166;28;20032;-72
2023/09/26 13:05:42;;;;;;;10.85;4.70;;;;;;;;;;5106948;28;20058;-75
2023/09/26 13:08:08;;;;;;;13.75;4.88;;;;;;;;;;5091166;28;20088;-73
2023/09/26 13:10:35;;;;;;;14.70;5.00;;;;;;;;;;5091693;28;20389;-74
2023/09/26 13:13:01;;;;;;;17.63;4.70;;;;;;;;;;5092121;28;20032;-71
2023/09/26 13:15:31;;;;;;;12.55;4.80;;;;;;;;;;5091489;28;20028;-73
2023/09/26 13:18:00;;;;;;;12.65;4.80;;;;;;;;;;5091894;28;20028;-72
2023/09/26 13:20:25;;;;;;;12.95;4.55;;;;;;;;;;5091628;28;20035;-71
2023/09/26 13:22:51;;;;;;;13.15;4.82;;;;;;;;;;5091518;28;20036;-74
2023/09/26 13:25:17;;;;;;;13.20;4.90;;;;;;;;;;5091733;28;20386;-72
2023/09/26 13:27:43;;;;;;;13.13;4.47;;;;;;;;;;5091934;28;20037;-71
2023/09/26 13:30:09;;;;;;;13.02;5.18;;;;;;;;;;5090197;28;20028;-71
2023/09/26 13:32:34;;;;;;;13.82;4.28;;;;;;;;;;5091867;28;20036;-71
2023/09/26 13:35:03;;;;;;;13.55;4.60;;;;;;;;;;5091947;28;20050;-70
2023/09/26 13:37:30;;;;;;;16.15;4.72;;;;;;;;;;5091352;28;20035;-72
2023/09/26 13:39:56;;;;;;;16.50;4.82;;;;;;;;;;5091650;28;20077;-71
2023/09/26 13:42:22;;;;;;;15.90;5.10;;;;;;;;;;5091610;28;20032;-72
2023/09/26 13:44:47;;;;;;;12.40;4.43;;;;;;;;;;5091696;28;20128;-71
2023/09/26 13:47:13;;;;;;;13.65;4.70;;;;;;;;;;5091268;28;20397;-72
2023/09/26 13:49:39;;;;;;;25.05;5.45;;;;;;;;;;5090946;28;20032;-71
2023/09/26 13:52:06;;;;;;;13.98;4.90;;;;;;;;;;5095222;28;20036;-71
2023/09/26 13:54:33;;;;;;;17.85;4.85;;;;;;;;;;5094405;28;20062;-70
2023/09/26 13:56:59;;;;;;;13.88;4.43;;;;;;;;;;5095735;28;20081;-72
2023/09/26 13:59:25;;;;;;;11.32;4.13;;;;;;;;;;5095618;28;20477;-72
2023/09/26 14:01:51;;;;;;;12.93;4.80;;;;;;;;;;5094090;28;20055;-72
2023/09/26 14:04:16;;;;;;;14.43;4.60;;;;;;;;;;5095635;28;20032;-71
2023/09/26 14:06:42;;;;;;;23.88;6.45;;;;;;;;;;5095872;28;20069;-70
2023/09/26 14:09:09;;;;;;;13.15;5.13;;;;;;;;;;5095258;28;20385;-72
2023/09/26 14:11:35;;;;;;;20.10;6.15;;;;;;;;;;5095458;28;20060;-70
2023/09/26 14:14:00;;;;;;;21.60;6.18;;;;;;;;;;5095481;28;20051;-73
2023/09/26 14:16:27;;;;;;;14.38;5.47;;;;;;;;;;5095183;28;20099;-71
2023/09/26 14:18:52;;;;;;;18.30;6.00;;;;;;;;;;5096331;28;20060;-72
2023/09/26 14:21:19;;;;;;;20.88;6.05;;;;;;;;;;5095008;28;20183;-73
2023/09/26 14:23:48;;;;;;;17.92;5.38;;;;;;;;;;5095177;28;20024;-71
2023/09/26 14:26:14;;;;;;;19.50;5.30;;;;;;;;;;5094936;28;20028;-72
2023/09/26 14:28:40;;;;;;;19.52;5.45;;;;;;;;;;5095041;28;20024;-72
2023/09/26 14:31:10;;;;;;;13.15;4.90;;;;;;;;;;5093685;28;20032;-70
2023/09/26 14:33:41;;;;;;;16.35;5.57;;;;;;;;;;5094732;28;20393;-70